Kisbey, Canada
Current Conditions -  °F | °C
As of 3:00 PM on Saturday 22 Nov 2014 (Local Time) from CYEN Reporting Station
Overcast Overcast  
Wind Chill: 34°   Ceiling: 4500
Heat Index: 39°   Visibility: 15mi
Dew Point: 32°   Wind: 8mph
Humidity: 75%   Direction: 130°SE
Pressure: 29.2"   Gusts: NA
Location:  49.63°N, 102.67°W
Report Text: CYEN 222100Z 13007KT 15SM BKN045 OVC120 04/00 A2920 RMK SC7AC1ACC ASOCTD PRESFR SLP913
Loading
Personal Weather Stations






























Interactive Weather Map New forecast layout! Learn more

10-Day Weather Forecast

Advertisements
Track Severe Weather on mobile